Time;durP1;ratioP1;P1;durP2;ratioP2;P2;SDS_P1;SDS_P2;PMS_P1;PMS_P2;Temp;Humidity;BMP_temperature;BMP_pressure;BME280_temperature;BME280_humidity;BME280_pressure;Samples;Min_cycle;Max_cycle;Signal;HPM_P1;HPM_P2
2021/07/02 00:04:16;;;;;;;16.92;10.10;;;;;;;;;;10328812;28;20060;-78
2021/07/02 00:09:17;;;;;;;12.80;8.50;;;;;;;;;;10328539;28;20534;-78
2021/07/02 00:14:19;;;;;;;18.10;9.95;;;;;;;;;;10328344;28;20058;-78
2021/07/02 00:19:23;;;;;;;12.93;9.52;;;;;;;;;;10328445;28;20129;-78
2021/07/02 00:24:24;;;;;;;14.30;10.32;;;;;;;;;;10327716;28;20090;-78
2021/07/02 00:29:26;;;;;;;12.20;9.18;;;;;;;;;;10310453;28;20198;-78
2021/07/02 00:34:27;;;;;;;19.00;11.18;;;;;;;;;;10327258;28;20108;-78
2021/07/02 00:39:29;;;;;;;13.45;9.90;;;;;;;;;;10327292;28;20058;-78
2021/07/02 00:44:40;;;;;;;16.73;9.82;;;;;;;;;;10326347;28;20050;-78
2021/07/02 00:49:42;;;;;;;16.75;9.82;;;;;;;;;;10326736;28;20460;-78
2021/07/02 00:54:44;;;;;;;16.95;10.07;;;;;;;;;;10325941;28;20082;-78
2021/07/02 00:59:46;;;;;;;14.77;9.90;;;;;;;;;;10325016;28;20088;-78
2021/07/02 01:04:48;;;;;;;13.02;9.73;;;;;;;;;;10325949;28;20134;-78
2021/07/02 01:09:49;;;;;;;14.63;9.27;;;;;;;;;;10348200;28;20080;-79
2021/07/02 01:14:51;;;;;;;16.02;9.02;;;;;;;;;;10325884;28;20133;-78
2021/07/02 01:19:53;;;;;;;14.30;9.60;;;;;;;;;;10326061;28;20089;-78
2021/07/02 01:24:56;;;;;;;14.70;9.18;;;;;;;;;;10325314;28;20133;-78
2021/07/02 01:29:57;;;;;;;13.43;9.52;;;;;;;;;;10340739;28;20137;-78
2021/07/02 01:34:59;;;;;;;12.70;9.55;;;;;;;;;;10299729;28;20155;-78
2021/07/02 01:40:00;;;;;;;14.23;9.32;;;;;;;;;;10324866;28;20086;-78
2021/07/02 01:45:04;;;;;;;11.23;8.90;;;;;;;;;;10324866;28;20524;-78
2021/07/02 01:50:06;;;;;;;14.35;9.52;;;;;;;;;;10325116;28;20046;-78
2021/07/02 01:55:08;;;;;;;18.63;8.45;;;;;;;;;;10325113;28;20054;-78
2021/07/02 02:00:09;;;;;;;12.45;9.18;;;;;;;;;;10324543;28;20054;-78
2021/07/02 02:05:11;;;;;;;16.58;9.25;;;;;;;;;;10346062;28;20077;-78
2021/07/02 02:10:13;;;;;;;14.50;9.35;;;;;;;;;;10331559;28;20073;-78
2021/07/02 02:15:15;;;;;;;16.30;9.30;;;;;;;;;;10329840;28;20073;-78
2021/07/02 02:20:16;;;;;;;13.05;8.95;;;;;;;;;;10314038;28;20084;-78
2021/07/02 02:25:18;;;;;;;14.80;9.13;;;;;;;;;;10313921;28;20511;-78
2021/07/02 02:30:20;;;;;;;13.80;9.00;;;;;;;;;;10330634;28;20045;-78
2021/07/02 02:35:21;;;;;;;13.32;9.10;;;;;;;;;;10313498;28;20082;-78
2021/07/02 02:40:23;;;;;;;18.83;9.18;;;;;;;;;;10330618;28;20069;-78
2021/07/02 02:45:24;;;;;;;14.43;8.80;;;;;;;;;;10330220;28;20154;-78
2021/07/02 02:50:26;;;;;;;14.63;8.88;;;;;;;;;;10329461;28;20125;-78
2021/07/02 02:55:27;;;;;;;13.80;8.70;;;;;;;;;;10332807;28;20093;-78
2021/07/02 03:00:29;;;;;;;14.18;8.48;;;;;;;;;;10338164;28;20093;-78
2021/07/02 03:05:31;;;;;;;14.00;9.02;;;;;;;;;;10315249;28;20081;-79
2021/07/02 03:10:33;;;;;;;14.40;8.48;;;;;;;;;;10332543;28;20133;-78
2021/07/02 03:15:35;;;;;;;14.85;8.85;;;;;;;;;;10329858;28;20161;-78
2021/07/02 03:20:37;;;;;;;16.15;9.07;;;;;;;;;;10313511;28;20086;-77
2021/07/02 03:25:38;;;;;;;13.50;9.18;;;;;;;;;;10330186;28;20081;-78
2021/07/02 03:30:40;;;;;;;16.08;8.68;;;;;;;;;;10330351;28;20150;-78
2021/07/02 03:35:41;;;;;;;14.35;9.73;;;;;;;;;;10329980;28;20078;-78
2021/07/02 03:40:43;;;;;;;14.32;9.07;;;;;;;;;;10329606;28;20869;-78
2021/07/02 03:45:44;;;;;;;13.90;9.50;;;;;;;;;;10329951;28;20088;-78
2021/07/02 03:50:46;;;;;;;16.60;9.95;;;;;;;;;;10329389;28;20476;-78
2021/07/02 03:55:47;;;;;;;17.00;9.68;;;;;;;;;;10329147;28;20082;-78
2021/07/02 04:00:49;;;;;;;18.77;10.45;;;;;;;;;;10311842;28;20144;-78
2021/07/02 04:05:50;;;;;;;18.13;9.32;;;;;;;;;;10327665;28;20054;-78
2021/07/02 04:10:52;;;;;;;16.02;10.23;;;;;;;;;;10328532;28;20078;-78
2021/07/02 04:15:54;;;;;;;14.77;9.18;;;;;;;;;;10328301;28;20547;-78
2021/07/02 04:20:55;;;;;;;17.77;10.13;;;;;;;;;;10310811;28;20112;-78
2021/07/02 04:25:57;;;;;;;15.48;10.10;;;;;;;;;;10310364;28;20068;-78
2021/07/02 04:30:58;;;;;;;12.85;9.48;;;;;;;;;;10326320;28;20125;-78
2021/07/02 04:36:00;;;;;;;14.10;9.65;;;;;;;;;;10327927;28;20050;-78
2021/07/02 04:41:01;;;;;;;15.55;8.68;;;;;;;;;;10310029;28;20149;-78
2021/07/02 04:46:03;;;;;;;18.27;9.95;;;;;;;;;;10327155;28;20104;-78
2021/07/02 04:51:19;;;;;;;15.80;8.90;;;;;;;;;;10327116;28;20042;-78
2021/07/02 04:56:21;;;;;;;14.13;8.55;;;;;;;;;;10326957;28;20142;-78
2021/07/02 05:01:24;;;;;;;14.23;8.40;;;;;;;;;;10326789;28;20101;-78
2021/07/02 05:06:26;;;;;;;12.75;8.55;;;;;;;;;;10326718;28;20054;-78
2021/07/02 05:11:27;;;;;;;12.48;7.93;;;;;;;;;;10326062;28;20077;-78
2021/07/02 05:16:29;;;;;;;12.07;7.78;;;;;;;;;;10306032;28;20129;-78
2021/07/02 05:21:31;;;;;;;11.82;7.72;;;;;;;;;;10310809;28;20058;-78
2021/07/02 05:26:32;;;;;;;12.93;7.45;;;;;;;;;;10320135;28;20142;-78
2021/07/02 05:31:34;;;;;;;12.85;8.13;;;;;;;;;;10301665;28;20101;-78
2021/07/02 05:36:36;;;;;;;14.52;7.25;;;;;;;;;;10315586;28;20130;-78
2021/07/02 05:41:37;;;;;;;10.90;7.65;;;;;;;;;;10323798;28;20109;-78
2021/07/02 05:46:39;;;;;;;14.82;7.97;;;;;;;;;;10321227;28;20165;-79
2021/07/02 05:51:40;;;;;;;16.27;7.72;;;;;;;;;;10332370;28;20053;-78
2021/07/02 05:56:42;;;;;;;14.63;7.97;;;;;;;;;;10319342;28;20105;-78
2021/07/02 06:01:44;;;;;;;13.63;7.97;;;;;;;;;;10323024;28;20447;-78
2021/07/02 06:06:48;;;;;;;14.55;8.35;;;;;;;;;;10322718;28;20078;-78
2021/07/02 06:11:49;;;;;;;14.32;8.68;;;;;;;;;;10337879;28;20081;-78
2021/07/02 06:16:51;;;;;;;12.38;7.75;;;;;;;;;;10322490;28;20143;-78
2021/07/02 06:21:53;;;;;;;13.13;8.18;;;;;;;;;;10322664;28;20137;-78
2021/07/02 06:26:54;;;;;;;15.27;8.32;;;;;;;;;;10324319;28;20081;-78
2021/07/02 06:31:56;;;;;;;15.02;8.20;;;;;;;;;;10312041;28;20086;-78
2021/07/02 06:36:57;;;;;;;14.15;8.10;;;;;;;;;;10330747;28;20054;-78
2021/07/02 06:41:59;;;;;;;13.57;8.50;;;;;;;;;;10331933;28;20137;-78
2021/07/02 06:47:00;;;;;;;12.77;8.00;;;;;;;;;;10330844;28;20133;-78
2021/07/02 06:52:02;;;;;;;13.65;7.68;;;;;;;;;;10331278;28;20081;-79
2021/07/02 06:57:04;;;;;;;15.95;7.60;;;;;;;;;;10325008;28;20133;-79
2021/07/02 07:02:10;;;;;;;15.50;8.07;;;;;;;;;;10325340;28;20516;-79
2021/07/02 07:07:11;;;;;;;16.13;7.22;;;;;;;;;;10328872;28;20097;-79
2021/07/02 07:12:13;;;;;;;12.85;6.70;;;;;;;;;;10344394;28;20137;-79
2021/07/02 07:17:15;;;;;;;14.32;7.30;;;;;;;;;;10339387;28;20113;-79
2021/07/02 07:22:17;;;;;;;11.32;6.40;;;;;;;;;;10335288;28;20086;-79
2021/07/02 07:27:19;;;;;;;12.48;6.30;;;;;;;;;;10327503;28;20169;-79
2021/07/02 07:32:20;;;;;;;13.52;7.00;;;;;;;;;;10329460;28;20073;-79
2021/07/02 07:37:23;;;;;;;11.77;6.45;;;;;;;;;;10329507;28;20086;-80
2021/07/02 07:42:24;;;;;;;12.43;6.50;;;;;;;;;;10329548;28;20546;-80
2021/07/02 07:47:26;;;;;;;8.55;5.28;;;;;;;;;;10329545;28;20086;-80
2021/07/02 07:52:39;;;;;;;10.70;6.05;;;;;;;;;;10327165;28;20586;-80
2021/07/02 07:57:42;;;;;;;11.38;5.50;;;;;;;;;;10329541;28;20057;-79
2021/07/02 08:02:44;;;;;;;11.48;6.15;;;;;;;;;;10328716;28;20141;-80
2021/07/02 08:07:46;;;;;;;10.68;5.93;;;;;;;;;;10328171;28;20057;-79
2021/07/02 08:12:47;;;;;;;11.05;6.00;;;;;;;;;;10328263;28;20447;-79
2021/07/02 08:17:49;;;;;;;8.30;5.60;;;;;;;;;;10328588;28;20112;-79
2021/07/02 08:22:51;;;;;;;11.82;6.75;;;;;;;;;;10327562;28;20137;-79
2021/07/02 08:33:16;;;;;;;6.75;3.70;;;;;;;;;;10327949;28;20096;-79
2021/07/02 08:38:18;;;;;;;6.80;3.40;;;;;;;;;;10330194;28;20137;-80
2021/07/02 08:43:20;;;;;;;43.97;6.15;;;;;;;;;;10327151;28;20524;-78
2021/07/02 08:48:22;;;;;;;6.55;3.60;;;;;;;;;;10327211;28;20132;-78
2021/07/02 08:53:24;;;;;;;11.68;3.92;;;;;;;;;;10325780;28;20411;-78
2021/07/02 08:58:26;;;;;;;5.60;3.55;;;;;;;;;;10321597;28;20161;-78
2021/07/02 09:03:28;;;;;;;11.73;4.05;;;;;;;;;;10319303;28;20054;-78
2021/07/02 09:08:32;;;;;;;7.38;3.47;;;;;;;;;;10320846;28;20085;-78
2021/07/02 09:13:40;;;;;;;8.80;3.70;;;;;;;;;;10320128;28;20128;-77
2021/07/02 09:18:42;;;;;;;6.88;3.40;;;;;;;;;;10315921;28;20055;-78
2021/07/02 09:23:44;;;;;;;17.48;4.13;;;;;;;;;;10319920;28;20153;-78
2021/07/02 09:28:45;;;;;;;8.20;4.53;;;;;;;;;;10320769;28;20142;-78
2021/07/02 09:33:47;;;;;;;9.45;4.05;;;;;;;;;;10321048;28;20082;-77
2021/07/02 09:38:49;;;;;;;8.38;4.95;;;;;;;;;;10320952;28;20057;-78
2021/07/02 09:43:56;;;;;;;10.30;5.13;;;;;;;;;;10322416;28;20133;-77
2021/07/02 09:48:58;;;;;;;6.80;4.30;;;;;;;;;;10323712;28;20074;-78
2021/07/02 09:54:06;;;;;;;18.63;5.72;;;;;;;;;;10322093;28;20158;-78
2021/07/02 09:59:16;;;;;;;7.10;5.18;;;;;;;;;;10320113;28;20571;-78
2021/07/02 10:04:20;;;;;;;7.90;4.88;;;;;;;;;;10315938;28;20093;-77
2021/07/02 10:09:21;;;;;;;7.63;5.07;;;;;;;;;;10320157;28;20100;-78
2021/07/02 10:14:23;;;;;;;8.00;4.88;;;;;;;;;;10321372;28;20455;-79
2021/07/02 10:19:25;;;;;;;8.70;4.90;;;;;;;;;;10321895;28;20387;-79
2021/07/02 10:24:26;;;;;;;9.05;5.10;;;;;;;;;;10337357;28;20619;-79
2021/07/02 10:29:31;;;;;;;13.43;5.32;;;;;;;;;;10336592;28;20077;-79
2021/07/02 10:34:34;;;;;;;10.20;5.10;;;;;;;;;;10322629;28;20081;-79
2021/07/02 10:39:37;;;;;;;10.40;5.18;;;;;;;;;;10321377;28;20508;-79
2021/07/02 10:44:54;;;;;;;9.27;5.63;;;;;;;;;;10304304;28;20053;-79
2021/07/02 10:49:55;;;;;;;11.20;5.28;;;;;;;;;;10320977;28;20047;-79
2021/07/02 10:54:57;;;;;;;9.27;5.55;;;;;;;;;;10336154;28;20078;-79
2021/07/02 11:00:00;;;;;;;19.25;6.18;;;;;;;;;;10319970;28;20046;-78
2021/07/02 11:05:03;;;;;;;9.65;5.20;;;;;;;;;;10335436;28;20086;-79
2021/07/02 11:10:06;;;;;;;13.85;5.20;;;;;;;;;;10321993;28;20046;-80
2021/07/02 11:15:10;;;;;;;9.25;5.40;;;;;;;;;;10322828;28;20125;-79
2021/07/02 11:20:17;;;;;;;10.63;5.78;;;;;;;;;;10327861;28;20082;-78
2021/07/02 11:25:33;;;;;;;10.50;6.13;;;;;;;;;;10327981;28;20136;-77
2021/07/02 11:30:39;;;;;;;9.68;5.47;;;;;;;;;;10329311;28;20065;-77
2021/07/02 11:35:41;;;;;;;8.48;5.60;;;;;;;;;;10310226;28;20050;-77
2021/07/02 11:40:47;;;;;;;12.63;6.13;;;;;;;;;;10327949;28;20141;-77
2021/07/02 11:45:55;;;;;;;11.32;5.70;;;;;;;;;;10327585;28;20125;-77
2021/07/02 11:50:57;;;;;;;6.97;5.47;;;;;;;;;;10328570;28;20104;-76
2021/07/02 11:56:07;;;;;;;15.23;6.05;;;;;;;;;;10325013;28;20161;-77
2021/07/02 12:01:08;;;;;;;11.98;5.78;;;;;;;;;;10317070;28;20089;-77
2021/07/02 12:06:14;;;;;;;9.30;5.78;;;;;;;;;;10324340;28;20054;-77
2021/07/02 12:11:15;;;;;;;15.27;5.50;;;;;;;;;;10321219;28;20101;-77
2021/07/02 12:16:17;;;;;;;18.77;6.38;;;;;;;;;;10324609;28;20046;-77
2021/07/02 12:21:25;;;;;;;13.77;5.63;;;;;;;;;;10325075;28;20054;-77
2021/07/02 12:26:27;;;;;;;11.88;5.53;;;;;;;;;;10320617;28;20046;-77
2021/07/02 12:31:29;;;;;;;10.77;5.63;;;;;;;;;;10325626;28;20042;-77
2021/07/02 12:36:31;;;;;;;23.50;6.13;;;;;;;;;;10324519;28;20136;-77
2021/07/02 12:41:34;;;;;;;7.65;5.25;;;;;;;;;;10324385;28;20054;-78
2021/07/02 12:46:35;;;;;;;10.55;5.80;;;;;;;;;;10321204;28;20435;-78
2021/07/02 12:51:41;;;;;;;7.50;5.50;;;;;;;;;;10318256;28;20472;-78
2021/07/02 12:56:44;;;;;;;8.90;5.30;;;;;;;;;;10336242;28;20142;-80
2021/07/02 13:01:46;;;;;;;9.13;5.28;;;;;;;;;;10322860;28;20060;-80
2021/07/02 13:06:57;;;;;;;12.30;6.22;;;;;;;;;;10320533;28;20101;-76
2021/07/02 13:12:12;;;;;;;16.95;5.50;;;;;;;;;;10323362;28;20078;-76
2021/07/02 13:17:13;;;;;;;10.73;5.15;;;;;;;;;;10323403;28;20096;-76
2021/07/02 13:22:17;;;;;;;8.32;5.00;;;;;;;;;;10323100;28;20062;-76
2021/07/02 13:27:19;;;;;;;7.38;5.32;;;;;;;;;;10315703;28;20298;-79
2021/07/02 13:32:24;;;;;;;7.38;5.28;;;;;;;;;;10296809;28;20086;-79
2021/07/02 13:37:26;;;;;;;10.02;5.30;;;;;;;;;;10321376;28;20712;-79
2021/07/02 13:42:30;;;;;;;7.90;5.05;;;;;;;;;;10322078;28;20081;-79
2021/07/02 13:47:32;;;;;;;6.85;4.95;;;;;;;;;;10323337;28;20125;-80
2021/07/02 13:52:35;;;;;;;9.40;5.22;;;;;;;;;;10322608;28;20057;-80
2021/07/02 13:57:38;;;;;;;9.75;5.20;;;;;;;;;;10321632;28;20077;-80
2021/07/02 14:02:39;;;;;;;6.70;4.78;;;;;;;;;;10321129;28;20088;-80
2021/07/02 14:07:42;;;;;;;8.88;5.40;;;;;;;;;;10319918;28;20502;-79
2021/07/02 14:12:43;;;;;;;9.18;5.10;;;;;;;;;;10321934;28;20078;-80
2021/07/02 14:17:46;;;;;;;8.85;5.05;;;;;;;;;;10322806;28;20054;-79
2021/07/02 14:22:48;;;;;;;8.00;4.80;;;;;;;;;;10322788;28;20154;-79
2021/07/02 14:27:55;;;;;;;8.90;5.75;;;;;;;;;;10322504;28;20057;-79
2021/07/02 14:32:57;;;;;;;9.93;5.43;;;;;;;;;;10321167;28;20088;-79
2021/07/02 14:37:59;;;;;;;8.38;5.28;;;;;;;;;;10319451;28;20055;-79
2021/07/02 14:43:00;;;;;;;8.25;5.07;;;;;;;;;;10322277;28;20066;-79
2021/07/02 14:48:02;;;;;;;8.48;5.00;;;;;;;;;;10320861;28;20097;-79
2021/07/02 14:53:04;;;;;;;7.85;4.97;;;;;;;;;;10343867;28;20046;-79
2021/07/02 14:58:06;;;;;;;8.77;4.85;;;;;;;;;;10312303;28;20050;-79
2021/07/02 15:03:08;;;;;;;10.48;5.00;;;;;;;;;;10328176;28;20050;-79
2021/07/02 15:08:09;;;;;;;8.00;4.85;;;;;;;;;;10327773;28;20161;-80
2021/07/02 15:13:11;;;;;;;7.13;4.82;;;;;;;;;;10328457;28;20082;-79
2021/07/02 15:18:13;;;;;;;8.68;4.90;;;;;;;;;;10328345;28;20487;-79
2021/07/02 15:23:14;;;;;;;7.20;4.63;;;;;;;;;;10327302;28;20085;-79
2021/07/02 15:28:16;;;;;;;12.45;5.70;;;;;;;;;;10327854;28;20133;-79
2021/07/02 15:33:18;;;;;;;7.15;4.75;;;;;;;;;;10327801;28;20050;-79
2021/07/02 15:38:20;;;;;;;8.05;4.78;;;;;;;;;;10327266;28;20097;-79
2021/07/02 15:43:21;;;;;;;6.63;4.30;;;;;;;;;;10326664;28;20078;-79
2021/07/02 15:48:23;;;;;;;6.90;4.32;;;;;;;;;;10325151;28;20042;-80
2021/07/02 15:53:26;;;;;;;6.38;4.10;;;;;;;;;;10323676;28;20081;-80
2021/07/02 15:58:27;;;;;;;9.00;4.40;;;;;;;;;;10323076;28;20153;-80
2021/07/02 16:03:29;;;;;;;7.05;4.20;;;;;;;;;;10340570;28;20077;-80
2021/07/02 16:08:31;;;;;;;5.57;3.78;;;;;;;;;;10324376;28;20078;-79
2021/07/02 16:13:32;;;;;;;8.02;4.10;;;;;;;;;;10322220;28;20132;-80
2021/07/02 16:18:34;;;;;;;5.53;4.07;;;;;;;;;;10326006;28;20061;-80
2021/07/02 16:23:36;;;;;;;6.38;4.00;;;;;;;;;;10325169;28;20074;-80
2021/07/02 16:28:37;;;;;;;5.50;3.90;;;;;;;;;;10321608;28;20137;-80
2021/07/02 16:33:39;;;;;;;8.68;3.53;;;;;;;;;;10325679;28;20050;-80
2021/07/02 16:38:42;;;;;;;6.72;3.50;;;;;;;;;;10324968;28;20174;-79
2021/07/02 16:43:44;;;;;;;6.68;3.65;;;;;;;;;;10324488;28;20078;-80
2021/07/02 16:48:46;;;;;;;8.45;3.80;;;;;;;;;;10329238;28;20054;-79
2021/07/02 16:53:47;;;;;;;11.23;3.83;;;;;;;;;;10326724;28;20077;-80
2021/07/02 16:58:50;;;;;;;7.63;3.97;;;;;;;;;;10320718;28;20129;-79
2021/07/02 17:03:54;;;;;;;6.53;3.70;;;;;;;;;;10323659;28;20085;-79
2021/07/02 17:08:56;;;;;;;6.38;3.60;;;;;;;;;;10282339;28;20094;-79
2021/07/02 17:13:57;;;;;;;5.25;3.70;;;;;;;;;;10281725;28;20129;-79
2021/07/02 17:18:59;;;;;;;5.75;3.80;;;;;;;;;;10276516;28;20070;-79
2021/07/02 17:24:16;;;;;;;6.18;3.67;;;;;;;;;;10280306;28;20759;-78
2021/07/02 17:29:18;;;;;;;5.80;3.28;;;;;;;;;;10254662;28;20043;-79
2021/07/02 17:34:20;;;;;;;5.72;3.80;;;;;;;;;;10286651;28;20039;-78
2021/07/02 17:39:25;;;;;;;5.97;3.40;;;;;;;;;;10289299;28;20495;-79
2021/07/02 17:44:27;;;;;;;5.03;3.28;;;;;;;;;;10302747;28;20058;-79
2021/07/02 17:49:29;;;;;;;6.10;3.45;;;;;;;;;;10281153;28;20546;-79
2021/07/02 17:54:31;;;;;;;5.38;3.50;;;;;;;;;;10280985;28;20050;-79
2021/07/02 17:59:33;;;;;;;6.43;3.45;;;;;;;;;;10282304;28;20131;-78
2021/07/02 18:04:35;;;;;;;5.53;3.58;;;;;;;;;;10280926;28;20141;-78
2021/07/02 18:09:38;;;;;;;6.25;3.33;;;;;;;;;;10280642;28;20474;-78
2021/07/02 18:14:40;;;;;;;11.95;4.72;;;;;;;;;;10278468;28;20134;-78
2021/07/02 18:19:42;;;;;;;7.68;3.78;;;;;;;;;;10281885;28;20138;-78
2021/07/02 18:24:44;;;;;;;5.53;3.30;;;;;;;;;;10283857;28;20086;-78
2021/07/02 18:29:46;;;;;;;6.78;3.70;;;;;;;;;;10289981;28;20135;-78
2021/07/02 18:34:47;;;;;;;6.35;3.70;;;;;;;;;;10290750;28;20078;-78
2021/07/02 18:39:49;;;;;;;5.47;3.47;;;;;;;;;;10290017;28;20059;-78
2021/07/02 18:44:51;;;;;;;6.25;3.65;;;;;;;;;;10289357;28;20767;-78
2021/07/02 18:49:52;;;;;;;8.43;3.70;;;;;;;;;;10289097;28;20173;-78
2021/07/02 18:54:57;;;;;;;5.97;3.67;;;;;;;;;;10275453;28;20129;-79
2021/07/02 19:00:00;;;;;;;5.65;3.75;;;;;;;;;;10289352;28;20051;-80
2021/07/02 19:05:09;;;;;;;9.55;4.13;;;;;;;;;;10303377;28;20150;-80
2021/07/02 19:10:11;;;;;;;6.10;3.70;;;;;;;;;;10284915;28;20039;-79
2021/07/02 19:15:17;;;;;;;5.35;3.75;;;;;;;;;;10286752;28;20086;-80
2021/07/02 19:20:19;;;;;;;7.70;3.88;;;;;;;;;;10286888;28;20149;-79
2021/07/02 19:25:21;;;;;;;6.07;4.13;;;;;;;;;;10286782;28;20062;-79
2021/07/02 19:30:24;;;;;;;7.95;3.75;;;;;;;;;;10296883;28;20515;-80
2021/07/02 19:35:27;;;;;;;7.75;4.05;;;;;;;;;;10287357;28;20074;-80
2021/07/02 19:40:29;;;;;;;6.05;4.28;;;;;;;;;;10286936;28;20395;-79
2021/07/02 19:45:30;;;;;;;6.97;4.35;;;;;;;;;;10285673;28;20138;-79
2021/07/02 19:50:32;;;;;;;8.65;4.35;;;;;;;;;;10292882;28;20055;-80
2021/07/02 19:55:34;;;;;;;10.20;4.85;;;;;;;;;;10293559;28;20097;-79
2021/07/02 20:00:36;;;;;;;9.20;4.70;;;;;;;;;;10269988;28;20461;-80
2021/07/02 20:05:37;;;;;;;7.75;4.78;;;;;;;;;;10287980;28;20086;-79
2021/07/02 20:10:41;;;;;;;8.13;4.50;;;;;;;;;;10285736;28;20141;-80
2021/07/02 20:15:43;;;;;;;6.40;4.80;;;;;;;;;;10286723;28;20082;-80
2021/07/02 20:20:45;;;;;;;6.25;4.53;;;;;;;;;;10286804;28;20078;-79
2021/07/02 20:25:47;;;;;;;7.30;4.88;;;;;;;;;;10287019;28;20485;-79
2021/07/02 20:30:49;;;;;;;7.35;4.85;;;;;;;;;;10285382;28;20090;-78
2021/07/02 20:35:50;;;;;;;6.90;5.18;;;;;;;;;;10285780;28;20473;-79
2021/07/02 20:40:54;;;;;;;9.15;5.10;;;;;;;;;;10285441;28;20090;-79
2021/07/02 20:45:56;;;;;;;10.63;4.90;;;;;;;;;;10285647;28;20130;-79
2021/07/02 20:50:57;;;;;;;12.93;4.90;;;;;;;;;;10284551;28;20459;-79
2021/07/02 20:55:59;;;;;;;8.52;5.30;;;;;;;;;;10271104;28;20082;-79
2021/07/02 21:01:00;;;;;;;7.07;5.22;;;;;;;;;;10287010;28;20129;-80
2021/07/02 21:06:02;;;;;;;10.30;5.50;;;;;;;;;;10269003;28;20772;-79
2021/07/02 21:11:03;;;;;;;8.75;5.78;;;;;;;;;;10285767;28;20134;-79
2021/07/02 21:16:05;;;;;;;8.75;5.35;;;;;;;;;;10285701;28;20078;-79
2021/07/02 21:21:08;;;;;;;7.53;5.38;;;;;;;;;;10299894;28;20051;-79
2021/07/02 21:26:10;;;;;;;12.50;5.68;;;;;;;;;;10285088;28;20054;-79
2021/07/02 21:31:11;;;;;;;12.23;5.85;;;;;;;;;;10284780;28;20126;-79
2021/07/02 21:36:13;;;;;;;10.32;5.30;;;;;;;;;;10282878;28;20055;-79
2021/07/02 21:41:15;;;;;;;7.82;5.40;;;;;;;;;;10282428;28;20062;-79
2021/07/02 21:46:16;;;;;;;7.25;5.40;;;;;;;;;;10284251;28;20146;-79
2021/07/02 21:51:19;;;;;;;7.85;5.65;;;;;;;;;;10284386;28;20670;-79
2021/07/02 21:56:21;;;;;;;9.15;5.75;;;;;;;;;;10298618;28;20133;-79
2021/07/02 22:01:22;;;;;;;8.73;6.07;;;;;;;;;;10266489;28;20062;-79
2021/07/02 22:06:24;;;;;;;10.90;5.55;;;;;;;;;;10283745;28;20464;-79
2021/07/02 22:11:25;;;;;;;8.93;6.07;;;;;;;;;;10283516;28;20082;-79
2021/07/02 22:16:27;;;;;;;10.38;6.00;;;;;;;;;;10283411;28;20125;-79
2021/07/02 22:21:29;;;;;;;11.52;6.70;;;;;;;;;;10265979;28;20051;-79
2021/07/02 22:26:30;;;;;;;10.00;5.95;;;;;;;;;;10266185;28;20086;-79
2021/07/02 22:31:32;;;;;;;11.77;6.30;;;;;;;;;;10283867;28;20058;-79
2021/07/02 22:36:34;;;;;;;8.13;5.85;;;;;;;;;;10275743;28;20047;-79
2021/07/02 22:41:36;;;;;;;8.30;6.35;;;;;;;;;;10266227;28;20614;-79
2021/07/02 22:46:38;;;;;;;10.38;5.85;;;;;;;;;;10282661;28;20555;-79
2021/07/02 22:51:39;;;;;;;9.80;6.50;;;;;;;;;;10283053;28;20063;-79
2021/07/02 22:56:41;;;;;;;9.57;6.28;;;;;;;;;;10282321;28;20078;-78
2021/07/02 23:01:43;;;;;;;11.95;7.00;;;;;;;;;;10283041;28;20142;-79
2021/07/02 23:06:44;;;;;;;10.68;6.47;;;;;;;;;;10282910;28;20126;-79
2021/07/02 23:11:46;;;;;;;10.13;6.57;;;;;;;;;;10300531;28;20137;-79
2021/07/02 23:16:48;;;;;;;12.13;7.38;;;;;;;;;;10304733;28;20173;-79
2021/07/02 23:21:49;;;;;;;8.82;6.13;;;;;;;;;;10289852;28;20878;-79
2021/07/02 23:26:52;;;;;;;11.05;7.22;;;;;;;;;;10289389;28;20071;-79
2021/07/02 23:31:54;;;;;;;9.77;6.10;;;;;;;;;;10290222;28;20543;-79
2021/07/02 23:36:56;;;;;;;10.88;6.68;;;;;;;;;;10289424;28;20082;-79
2021/07/02 23:41:57;;;;;;;10.43;6.85;;;;;;;;;;10288339;28;20523;-79
2021/07/02 23:46:59;;;;;;;7.50;6.18;;;;;;;;;;10288816;28;20437;-78
2021/07/02 23:52:01;;;;;;;9.45;6.10;;;;;;;;;;10289239;28;20046;-79
2021/07/02 23:57:02;;;;;;;9.63;6.25;;;;;;;;;;10288499;28;20157;-79
